createdAt,value
2017-09-19T00:00:10.554Z,3.67
2017-09-19T00:02:38.095Z,3.87
2017-09-19T00:05:05.668Z,4.53
2017-09-19T00:07:33.227Z,4.10
2017-09-19T00:10:00.821Z,4.13
2017-09-19T00:12:28.405Z,4.07
2017-09-19T00:14:55.974Z,4.17
2017-09-19T00:17:24.313Z,4.03
2017-09-19T00:19:51.866Z,4.07
2017-09-19T00:22:19.432Z,3.57
2017-09-19T00:24:46.970Z,3.90
2017-09-19T00:27:14.529Z,4.17
2017-09-19T00:29:42.078Z,3.53
2017-09-19T00:32:09.628Z,3.90
2017-09-19T00:34:37.187Z,3.93
2017-09-19T00:37:04.731Z,4.30
2017-09-19T00:39:33.061Z,3.70
2017-09-19T00:42:00.605Z,3.90
2017-09-19T00:44:28.169Z,4.00
2017-09-19T00:46:55.773Z,4.43
2017-09-19T00:49:23.335Z,4.50
2017-09-19T00:51:50.882Z,5.20
2017-09-19T00:54:18.478Z,4.93
2017-09-19T00:56:46.789Z,4.40
2017-09-19T00:59:15.334Z,4.20
2017-09-19T01:01:42.912Z,3.90
2017-09-19T01:04:10.484Z,4.33
2017-09-19T01:06:38.058Z,3.87
2017-09-19T01:09:05.610Z,4.20
2017-09-19T01:11:33.176Z,4.17
2017-09-19T01:14:00.772Z,4.40
2017-09-19T01:16:28.353Z,4.07
2017-09-19T01:18:56.668Z,4.10
2017-09-19T01:21:24.257Z,4.37
2017-09-19T01:23:51.799Z,4.57
2017-09-19T01:26:19.357Z,4.70
2017-09-19T01:28:46.909Z,4.80
2017-09-19T01:31:14.494Z,4.80
2017-09-19T01:33:42.045Z,4.57
2017-09-19T01:36:09.606Z,5.07
2017-09-19T01:38:37.151Z,5.00
2017-09-19T01:41:04.730Z,5.30
2017-09-19T01:43:32.303Z,5.17
2017-09-19T01:45:59.866Z,5.27
2017-09-19T01:48:27.441Z,5.40
2017-09-19T01:50:55.002Z,5.30
2017-09-19T01:53:23.334Z,5.27
2017-09-19T01:55:50.902Z,4.97
2017-09-19T01:58:18.461Z,5.67
2017-09-19T02:00:46.034Z,5.00
2017-09-19T02:03:13.614Z,5.10
2017-09-19T02:05:41.194Z,5.50
2017-09-19T02:08:09.513Z,5.57
2017-09-19T02:10:37.074Z,4.80
2017-09-19T02:13:04.630Z,4.77
2017-09-19T02:15:32.194Z,5.27
2017-09-19T02:17:59.745Z,4.73
2017-09-19T02:20:27.301Z,4.93
2017-09-19T02:22:54.861Z,5.07
2017-09-19T02:25:22.451Z,5.43
2017-09-19T02:27:50.014Z,4.33
2017-09-19T02:30:17.558Z,5.00
2017-09-19T02:32:45.130Z,4.20
2017-09-19T02:35:12.708Z,4.37
2017-09-19T02:37:40.254Z,4.10
2017-09-19T02:40:07.811Z,4.30
2017-09-19T02:42:35.372Z,4.40
2017-09-19T02:45:02.930Z,4.30
2017-09-19T02:47:30.498Z,4.47
2017-09-19T02:49:58.049Z,4.93
2017-09-19T02:52:25.606Z,4.93
2017-09-19T02:54:53.166Z,4.50
2017-09-19T02:57:20.729Z,4.90
2017-09-19T02:59:48.309Z,5.03
2017-09-19T03:02:16.655Z,4.90
2017-09-19T03:04:44.209Z,4.33
2017-09-19T03:07:11.796Z,5.30
2017-09-19T03:09:39.341Z,4.50
2017-09-19T03:12:06.891Z,4.70
2017-09-19T03:14:34.447Z,5.47
2017-09-19T03:17:02.014Z,5.20
2017-09-19T03:19:29.582Z,4.50
2017-09-19T03:21:57.145Z,5.30
2017-09-19T03:24:24.742Z,4.67
2017-09-19T03:26:53.056Z,5.40
2017-09-19T03:29:20.605Z,4.70
2017-09-19T03:31:48.151Z,5.33
2017-09-19T03:34:15.724Z,4.90
2017-09-19T03:36:43.291Z,4.77
2017-09-19T03:39:10.866Z,4.30
2017-09-19T03:41:38.441Z,4.20
2017-09-19T03:44:06.007Z,4.70
2017-09-19T03:46:33.552Z,4.30
2017-09-19T03:49:01.117Z,4.60
2017-09-19T03:51:28.682Z,4.40
2017-09-19T03:53:56.238Z,4.13
2017-09-19T03:56:23.800Z,4.40
2017-09-19T03:58:51.345Z,4.03
2017-09-19T04:01:18.888Z,4.60
2017-09-19T04:03:46.452Z,4.93
2017-09-19T04:06:14.022Z,4.60
2017-09-19T04:08:41.584Z,4.73
2017-09-19T04:11:09.144Z,4.90
2017-09-19T04:13:36.695Z,4.43
2017-09-19T04:16:04.262Z,4.63
2017-09-19T04:18:31.826Z,3.97
2017-09-19T04:20:59.376Z,4.47
2017-09-19T04:23:26.935Z,4.60
2017-09-19T04:25:54.556Z,4.23
2017-09-19T04:28:22.912Z,3.80
2017-09-19T04:30:53.616Z,3.47
2017-09-19T04:33:21.205Z,4.27
2017-09-19T04:35:48.820Z,3.80
2017-09-19T04:38:16.406Z,4.10
2017-09-19T04:40:43.976Z,4.10
2017-09-19T04:43:11.573Z,4.23
2017-09-19T04:45:39.159Z,4.40
2017-09-19T04:48:06.751Z,3.93
2017-09-19T04:50:34.338Z,4.10
2017-09-19T04:53:02.710Z,4.27
2017-09-19T04:55:31.103Z,5.10
2017-09-19T04:57:59.512Z,5.03
2017-09-19T05:00:27.090Z,5.20
2017-09-19T05:02:54.687Z,5.80
2017-09-19T05:05:22.331Z,5.23
2017-09-19T05:07:49.944Z,4.80
2017-09-19T05:10:17.535Z,4.70
2017-09-19T05:12:45.151Z,7.10
2017-09-19T05:15:12.753Z,5.87
2017-09-19T05:17:57.337Z,5.33
2017-09-19T05:20:44.203Z,6.20
2017-09-19T05:23:26.988Z,6.30
2017-09-19T05:25:55.343Z,6.70
2017-09-19T05:28:22.918Z,6.77
2017-09-19T05:30:50.473Z,7.23
2017-09-19T05:33:18.046Z,7.50
2017-09-19T05:35:45.593Z,7.47
2017-09-19T05:38:13.179Z,7.90
2017-09-19T05:40:40.749Z,7.30
2017-09-19T05:43:09.095Z,7.80
2017-09-19T05:45:36.668Z,8.00
2017-09-19T05:48:04.257Z,6.80
2017-09-19T05:50:33.542Z,8.37
2017-09-19T05:53:01.629Z,7.77
2017-09-19T05:55:29.219Z,8.13
2017-09-19T05:57:56.780Z,7.97
2017-09-19T06:00:24.346Z,7.13
2017-09-19T06:02:51.910Z,7.60
2017-09-19T06:05:19.481Z,8.80
2017-09-19T06:07:47.038Z,8.00
2017-09-19T06:10:14.592Z,8.23
2017-09-19T06:12:42.165Z,9.40
2017-09-19T06:15:09.717Z,8.70
2017-09-19T06:17:37.265Z,8.33
2017-09-19T06:20:04.814Z,8.60
2017-09-19T06:22:32.348Z,9.03
2017-09-19T06:25:00.713Z,9.30
2017-09-19T06:27:29.053Z,16.30
2017-09-19T06:29:56.648Z,10.43
2017-09-19T06:32:24.973Z,9.37
2017-09-19T06:34:52.551Z,9.43
2017-09-19T06:37:20.106Z,9.03
2017-09-19T06:39:47.670Z,8.40
2017-09-19T06:42:15.254Z,8.40
2017-09-19T06:44:42.802Z,8.97
2017-09-19T06:47:10.399Z,9.77
2017-09-19T06:49:38.708Z,9.20
2017-09-19T06:52:06.278Z,9.30
2017-09-19T06:54:33.840Z,8.67
2017-09-19T06:57:01.405Z,9.47
2017-09-19T06:59:28.957Z,9.20
2017-09-19T07:01:56.533Z,9.00
2017-09-19T07:04:24.090Z,9.77
2017-09-19T07:06:51.650Z,8.83
2017-09-19T07:09:19.197Z,9.50
2017-09-19T07:11:52.751Z,8.83
2017-09-19T07:14:20.401Z,8.87
2017-09-19T07:16:49.770Z,8.70
2017-09-19T07:19:17.372Z,8.47
2017-09-19T07:21:45.701Z,8.07
2017-09-19T07:24:13.266Z,7.50
2017-09-19T07:26:40.846Z,7.10
2017-09-19T07:29:10.095Z,7.50
2017-09-19T07:31:37.657Z,7.37
2017-09-19T07:34:05.250Z,7.60
2017-09-19T07:36:32.803Z,7.57
2017-09-19T07:39:00.403Z,8.53
2017-09-19T07:41:28.735Z,7.77
2017-09-19T07:43:56.322Z,8.97
2017-09-19T07:46:23.880Z,8.77
2017-09-19T07:48:51.453Z,10.07
2017-09-19T07:51:19.026Z,9.93
2017-09-19T07:53:47.357Z,10.63
2017-09-19T07:56:14.937Z,10.13
2017-09-19T07:58:42.513Z,9.70
2017-09-19T08:01:10.106Z,7.57
2017-09-19T08:03:42.049Z,8.10
2017-09-19T08:08:55.358Z,9.30
2017-09-19T08:11:22.930Z,10.20
2017-09-19T08:13:55.569Z,10.67
2017-09-19T08:16:23.155Z,10.37
2017-09-19T08:18:50.713Z,9.90
2017-09-19T08:21:18.258Z,9.40
2017-09-19T08:23:45.825Z,9.37
2017-09-19T08:26:13.397Z,9.20
2017-09-19T08:28:40.965Z,7.83
2017-09-19T08:31:08.509Z,7.43
2017-09-19T08:33:36.065Z,7.30
2017-09-19T08:36:03.649Z,8.17
2017-09-19T08:38:31.193Z,9.47
2017-09-19T08:40:58.733Z,8.90
2017-09-19T08:43:26.290Z,8.00
2017-09-19T08:45:53.838Z,8.17
2017-09-19T08:48:21.407Z,8.30
2017-09-19T08:50:48.967Z,10.17
2017-09-19T08:53:16.496Z,8.60
2017-09-19T08:55:44.808Z,8.33
2017-09-19T08:58:12.347Z,8.43
2017-09-19T09:00:39.931Z,9.30
2017-09-19T09:03:07.495Z,8.60
2017-09-19T09:05:35.065Z,8.87
2017-09-19T09:08:02.625Z,8.97
2017-09-19T09:10:30.184Z,8.70
2017-09-19T09:12:57.764Z,7.80
2017-09-19T09:15:25.341Z,8.60
2017-09-19T09:17:53.682Z,8.13
2017-09-19T09:20:21.236Z,8.23
2017-09-19T09:22:48.793Z,9.30
2017-09-19T09:25:16.397Z,8.20
2017-09-19T09:27:43.950Z,8.00
2017-09-19T09:30:11.529Z,7.93
2017-09-19T09:32:39.836Z,8.90
